Latest Weather Observations for Eildon Fire Tower

IDV60801

Issued at 5:31 am EST Tuesday 26 May 2015 (issued every 30 minutes, with the page automatically refreshed every 10 minutes)

About weather observations | Map of weather stations | Latest weather observations for VIC | Other Formats
Station Details ID: 088164 Name: EILDON FIRE TOWER Lat: -37.21 Lon: 145.84 Height: 637.0 m
Data from the previous 72 hours. | See also: Recent months at Eildon Fire Tower
Date/Time
EST
Temp
°C
App
Temp
°C
Dew
Point
Rel
Hum
%
Delta-T
°C
Wind Press
QNH
hPa
Press
MSL
hPa
Rain
since 9 am
mm
Dir
 
Spd
km/h
Gust
km/h
Spd
kts
Gust
kts
26/05:30am 5.0 1.7 2.2 82 1.2 E 9 11 5 6 - - 0.0
26/05:00am 4.2 0.4 1.6 83 1.1 ESE 11 15 6 8 - - 0.0
26/04:30am 4.5 0.7 1.9 83 1.1 ESE 11 13 6 7 - - 0.0
26/04:00am 4.9 1.1 1.9 81 1.2 E 11 13 6 7 - - 0.0
26/03:30am 4.5 0.8 2.2 85 1.0 E 11 11 6 6 - - 0.0
26/03:00am 5.0 0.9 2.0 81 1.3 ESE 13 13 7 7 - - 0.0
26/02:30am 4.7 0.9 1.9 82 1.2 E 11 11 6 6 - - 0.0
26/02:00am 6.1 2.8 2.6 78 1.5 ESE 9 9 5 5 - - 0.0
26/01:30am 5.5 1.5 2.7 82 1.2 E 13 15 7 8 - - 0.0
26/01:00am 5.6 1.6 2.8 82 1.2 E 13 15 7 8 - - 0.0
26/12:30am 6.1 2.9 3.3 82 1.2 E 9 11 5 6 - - 0.0
26/12:00am 6.6 3.0 3.2 79 1.5 E 11 13 6 7 - - 0.0
 
Date/Time
EST
Temp
°C
App
Temp
°C
Dew
Point
Rel
Hum
%
Delta-T
°C
Wind Press
QNH
hPa
Press
MSL
hPa
Rain
since 9 am
mm
Dir
 
Spd
km/h
Gust
km/h
Spd
kts
Gust
kts
25/11:30pm 6.2 2.3 3.4 82 1.2 E 13 15 7 8 - - 0.0
25/11:00pm 6.4 2.5 3.2 80 1.4 E 13 15 7 8 - - 0.0
25/10:30pm 6.6 3.5 3.4 80 1.4 E 9 13 5 7 - - 0.0
25/10:00pm 6.4 3.3 3.7 83 1.2 ENE 9 9 5 5 - - 0.0
25/09:30pm 6.8 3.3 3.6 80 1.4 ENE 11 13 6 7 - - 0.0
25/09:00pm 7.5 4.4 3.7 77 1.7 NE 9 11 5 6 - - 0.0
25/08:30pm 7.0 3.9 3.8 80 1.4 NE 9 9 5 5 - - 0.0
25/08:00pm 7.6 4.9 3.8 77 1.7 NE 7 9 4 5 - - 0.0
25/07:30pm 7.5 4.9 3.4 75 1.8 NE 6 6 3 3 - - 0.0
25/07:00pm 7.6 5.0 4.2 79 1.5 NE 7 9 4 5 - - 0.0
25/06:30pm 7.4 5.0 4.4 81 1.4 NE 6 7 3 4 - - 0.0
25/06:00pm 7.7 5.1 4.3 79 1.5 NE 7 9 4 5 - - 0.0
25/05:30pm 7.9 5.3 4.1 77 1.7 NE 7 9 4 5 - - 0.0
25/05:00pm 8.1 5.4 3.9 75 1.9 NE 7 7 4 4 - - 0.0
25/04:30pm 9.2 6.8 4.2 71 2.3 NE 6 7 3 4 - - 0.0
25/04:00pm 10.2 8.3 4.8 69 2.5 NNE 4 7 2 4 - - 0.0
25/03:30pm 10.1 8.2 4.9 70 2.4 NE 4 6 2 3 - - 0.0
25/03:00pm 9.7 7.3 4.3 69 2.5 NE 6 9 3 5 - - 0.0
25/02:30pm 10.1 7.6 4.0 66 2.8 NNE 6 9 3 5 - - 0.0
25/02:00pm 10.0 8.7 5.8 75 2.0 NW 2 6 1 3 - - 0.0
25/01:30pm 9.4 7.9 5.2 75 2.0 NW 2 4 1 2 - - 0.0
25/01:00pm 8.3 6.6 6.1 86 1.0 NW 4 6 2 3 - - 0.0
25/12:30pm 8.2 7.3 6.0 86 1.0 CALM 0 2 0 1 - - 0.0
25/12:00pm 8.3 6.4 4.7 78 1.7 WNW 4 4 2 2 - - 0.0
25/11:30am 7.4 5.5 4.7 83 1.2 WNW 4 4 2 2 - - 0.0
25/11:00am 7.9 6.3 4.3 78 1.6 W 2 6 1 3 - - 0.0
25/10:30am 6.6 4.0 4.4 86 1.0 W 7 9 4 5 - - 0.0
25/10:00am 7.7 4.9 2.2 68 2.4 WNW 6 6 3 3 - - 0.0
25/09:30am 7.7 5.5 3.2 73 2.0 WNW 4 6 2 3 - - 0.0
25/09:00am 7.3 4.8 1.4 66 2.5 WNW 4 4 2 2 - - 0.0
25/08:30am 6.7 3.7 2.0 72 2.0 WNW 7 7 4 4 - - 0.0
25/08:00am 6.2 3.8 2.1 75 1.7 WSW 4 7 2 4 - - 0.0
25/07:30am 4.9 2.4 3.7 92 0.5 WSW 6 7 3 4 - - 0.0
25/07:00am 3.9 -0.4 3.2 95 0.3 W 15 17 8 9 - - 0.0
25/06:30am 5.2 2.5 2.6 83 1.1 NNE 6 9 3 5 - - 0.0
25/06:00am 5.8 2.5 2.6 80 1.4 NE 9 13 5 7 - - 0.0
25/05:30am 5.6 0.8 2.6 81 1.3 NE 17 19 9 10 - - 0.0
25/05:00am 5.8 2.1 2.4 79 1.4 NE 11 13 6 7 - - 0.0
25/04:30am 6.2 2.6 2.8 79 1.5 NE 11 13 6 7 - - 0.0
25/04:00am 6.2 3.3 2.7 78 1.5 NE 7 9 4 5 - - 0.0
25/03:30am 6.5 3.6 2.8 77 1.6 NE 7 9 4 5 - - 0.0
25/03:00am 5.8 2.6 3.3 84 1.1 NNE 9 9 5 5 - - 0.0
25/02:30am 6.5 3.7 3.1 79 1.5 NNE 7 7 4 4 - - 0.0
25/02:00am 6.5 4.0 3.5 81 1.3 N 6 7 3 4 - - 0.0
25/01:30am 6.6 4.4 3.6 81 1.3 ENE 4 6 2 3 - - 0.0
25/01:00am 6.6 4.0 3.2 79 1.5 NNE 6 6 3 3 - - 0.0
25/12:30am 7.1 5.0 3.7 79 1.5 N 4 4 2 2 - - 0.0
25/12:00am 7.0 4.8 3.3 77 1.6 NNE 4 6 2 3 - - 0.0
 
Date/Time
EST
Temp
°C
App
Temp
°C
Dew
Point
Rel
Hum
%
Delta-T
°C
Wind Press
QNH
hPa
Press
MSL
hPa
Rain
since 9 am
mm
Dir
 
Spd
km/h
Gust
km/h
Spd
kts
Gust
kts
24/11:30pm 7.1 4.9 3.5 78 1.6 NNE 4 6 2 3 - - 0.0
24/11:00pm 6.7 4.2 3.5 80 1.4 NNE 6 6 3 3 - - 0.0
24/10:30pm 6.8 4.6 3.4 79 1.5 NNE 4 6 2 3 - - 0.0
24/10:00pm 6.8 3.9 2.7 75 1.8 NE 7 9 4 5 - - 0.0
24/09:30pm 7.1 4.9 3.2 76 1.7 NE 4 4 2 2 - - 0.0
24/09:00pm 7.4 5.1 2.5 71 2.1 NE 4 6 2 3 - - 0.0
24/08:30pm 7.9 5.2 2.6 69 2.3 NNE 6 6 3 3 - - 0.0
24/08:00pm 8.0 5.3 2.7 69 2.3 NE 6 7 3 4 - - 0.0
24/07:30pm 8.0 5.3 2.5 68 2.4 NE 6 9 3 5 - - 0.0
24/07:00pm 8.2 5.4 2.0 65 2.7 NE 6 7 3 4 - - 0.0
24/06:30pm 7.9 4.3 3.0 71 2.2 NE 11 11 6 6 - - 0.0
24/06:00pm 8.2 6.0 3.3 71 2.2 N 4 6 2 3 - - 0.0
24/05:30pm 8.6 6.8 3.2 69 2.4 N 2 4 1 2 - - 0.0
24/05:00pm 8.7 6.5 5.4 80 1.5 N 6 7 3 4 - - 0.0
24/04:30pm 9.4 7.9 5.2 75 2.0 N 2 4 1 2 - - 0.0
24/04:00pm 11.3 9.2 1.5 51 4.3 NNE 2 4 1 2 - - 0.0
24/03:30pm 11.0 8.2 -0.2 46 4.7 NNE 4 6 2 3 - - 0.0
24/03:00pm 11.3 9.1 3.1 57 3.7 NNE 4 6 2 3 - - 0.0
24/02:30pm 11.0 8.7 2.6 56 3.8 NE 4 6 2 3 - - 0.0
24/02:00pm 13.0 10.5 1.7 46 5.0 NE 4 6 2 3 - - 0.0
24/01:30pm 11.4 8.5 1.6 51 4.3 NE 6 9 3 5 - - 0.0
24/01:00pm 10.5 7.0 -1.2 44 4.8 NE 7 11 4 6 - - 0.0
24/12:30pm 10.9 8.0 1.4 52 4.1 N 6 9 3 5 - - 0.0
24/12:00pm 10.4 7.8 3.0 60 3.3 N 6 9 3 5 - - 0.0
24/11:30am 10.0 7.0 1.1 54 3.8 NNE 6 9 3 5 - - 0.0
24/11:00am 10.4 8.1 2.7 59 3.4 NNE 4 6 2 3 - - 0.0
24/10:30am 9.6 7.9 4.0 68 2.6 E 2 4 1 2 - - 0.0
24/10:00am 9.4 6.5 -3.8 39 5.0 E 2 4 1 2 - - 0.0
24/09:30am 9.8 6.8 -4.9 35 5.5 E 2 4 1 2 - - 0.0
24/09:00am 7.5 5.2 0.3 60 3.0 E 2 4 1 2 - - 0.0
24/08:30am 6.9 2.9 -6.1 39 4.5 E 7 9 4 5 - - 0.0
24/08:00am 6.2 2.1 -6.7 39 4.4 ESE 7 9 4 5 - - 0.0
24/07:30am 6.9 2.3 -7.9 34 4.9 E 9 11 5 6 - - 0.0
24/07:00am 7.3 2.9 -10.0 28 5.5 ENE 7 9 4 5 - - 0.0
24/06:30am 5.0 0.6 -5.4 47 3.6 E 9 13 5 7 - - 0.0
24/06:00am 4.0 -0.8 -2.4 63 2.4 E 13 15 7 8 - - 0.0
24/05:30am 4.6 -0.3 -3.2 57 2.8 E 13 15 7 8 - - 0.0
24/05:00am 5.6 1.1 -3.2 53 3.2 E 11 11 6 6 - - 0.0
24/04:30am 5.4 1.6 -0.8 64 2.4 E 9 11 5 6 - - 0.0
24/04:00am 6.0 3.3 2.6 79 1.5 NE 6 7 3 4 - - 0.0
24/03:30am 6.0 2.3 0.1 66 2.4 ENE 9 9 5 5 - - 0.0
24/03:00am 4.9 1.3 0.7 74 1.7 E 9 9 5 5 - - 0.0
24/02:30am 5.4 2.5 1.7 77 1.5 E 6 7 3 4 - - 0.0
24/02:00am 5.2 3.0 3.2 87 0.9 ESE 4 6 2 3 - - 0.0
24/01:30am 5.7 2.0 -3.1 53 3.3 ESE 7 9 4 5 - - 0.0
24/01:00am 5.8 3.3 1.7 75 1.7 ESE 4 6 2 3 - - 0.0
24/12:30am 6.6 3.8 1.9 72 2.0 ESE 6 6 3 3 - - 0.0
24/12:00am 6.7 3.6 -0.1 62 2.7 ESE 6 7 3 4 - - 0.0
 
Date/Time
EST
Temp
°C
App
Temp
°C
Dew
Point
Rel
Hum
%
Delta-T
°C
Wind Press
QNH
hPa
Press
MSL
hPa
Rain
since 9 am
mm
Dir
 
Spd
km/h
Gust
km/h
Spd
kts
Gust
kts
23/11:30pm 6.7 4.7 4.2 84 1.1 ESE 4 4 2 2 - - 0.0
23/11:00pm 6.3 3.8 3.8 84 1.1 E 6 6 3 3 - - 0.0
23/10:30pm 6.2 3.6 4.0 86 1.0 E 7 7 4 4 - - 0.0
23/10:00pm 7.0 4.0 4.1 82 1.3 E 9 11 5 6 - - 0.0
23/09:30pm 6.9 3.9 3.9 81 1.3 E 9 9 5 5 - - 0.0
23/09:00pm 7.9 4.9 4.3 78 1.6 E 9 9 5 5 - - 0.0
23/08:30pm 8.1 6.6 4.9 80 1.5 W 2 4 1 2 - - 0.0
23/08:00pm 8.1 6.6 4.9 80 1.5 W 2 4 1 2 - - 0.0
23/07:30pm 7.4 5.1 5.0 85 1.1 W 6 7 3 4 - - 0.0
23/07:00pm 7.8 5.3 4.7 81 1.4 W 7 9 4 5 - - 0.0
23/06:30pm 8.4 6.2 5.2 80 1.5 WSW 6 7 3 4 - - 0.0
23/06:00pm 8.3 5.8 4.7 78 1.7 WSW 7 7 4 4 - - 0.0
23/05:30pm 8.5 5.2 4.3 75 1.9 WSW 11 13 6 7 - - 0.0
23/05:00pm 9.0 5.7 4.6 74 2.0 WSW 11 13 6 7 - - 0.0
23/04:30pm 10.2 6.3 3.3 62 3.1 WSW 13 15 7 8 - - 0.0
23/04:00pm 11.5 8.9 4.3 61 3.4 W 7 9 4 5 - - 0.0
23/03:30pm 11.7 9.2 4.0 59 3.6 W 6 7 3 4 - - 0.0
23/03:00pm 11.2 8.7 4.7 64 3.1 W 7 9 4 5 - - 0.0
23/02:30pm 10.7 7.7 4.0 63 3.1 W 9 13 5 7 - - 0.0
23/02:00pm 10.5 7.9 4.2 65 2.9 W 7 9 4 5 - - 0.0
23/01:30pm 11.7 10.1 6.2 69 2.7 WSW 4 6 2 3 - - 0.0
23/01:00pm 10.3 8.4 4.7 68 2.6 WSW 4 7 2 4 - - 0.0
23/12:30pm 9.6 7.7 5.0 73 2.1 WNW 4 6 2 3 - - 0.0
23/12:00pm 9.8 7.8 4.6 70 2.4 NNW 4 7 2 4 - - 0.0
23/11:30am 10.2 8.5 5.8 74 2.1 WNW 4 7 2 4 - - 0.0
23/11:00am 8.9 7.1 5.3 78 1.7 NE 4 6 2 3 - - 0.0
23/10:30am 8.3 6.3 4.5 77 1.7 NE 4 7 2 4 - - 0.0
23/10:00am 5.8 3.5 2.8 81 1.3 SSE 4 6 2 3 - - 0.0
23/09:30am 6.1 4.6 2.9 80 1.4 CALM 0 0 0 0 - - 0.0
23/09:00am 5.1 3.4 2.1 81 1.3 CALM 0 2 0 1 - - 0.2
23/08:30am 4.1 2.0 2.0 86 0.9 SSE 2 4 1 2 - - 0.2
23/08:00am 3.7 1.3 1.9 88 0.7 SSE 4 6 2 3 - - 0.2
23/07:30am 3.2 0.2 1.9 91 0.5 SSE 7 11 4 6 - - 0.2
23/07:00am 2.8 -1.1 1.3 90 0.6 SE 11 17 6 9 - - 0.2
23/06:30am 2.9 -2.1 1.3 89 0.6 ESE 17 24 9 13 - - 0.2
23/06:00am 3.1 -1.2 1.3 88 0.7 ESE 13 19 7 10 - - 0.2

Other Formats:

Comma delimited format used in spreadsheet applications
http://www.bom.gov.au/fwo/IDV60801/IDV60801.94881.axf

JavaScript Object Notation format (JSON) in row-major order
http://www.bom.gov.au/fwo/IDV60801/IDV60801.94881.json